DLH903 OMDB-EDDF
Flight info
| Callsign | DLH903 |
|---|---|
| Flight time | N/A |
| Altitude | 36000 |
| Route | ANVIX L223 TARDI N629 BOTAM Y855 LAKLU Q204 NALKI G652 TOKRA DCT ALROK DCT BOSOB DCT ITRUX Y511 PMA Z712 WEJ L677 DARAX/N0476F380 L677 GESON Q777 RASDA DCT OTHON DCT VAXOS DCT RDS UL609 MES DCT EVIVI L863 EDIKA/N0467F400 L863 OKANA DCT RAVAK DCT BABIT DCT SASAL DCT SUBEN T161 DEBHI DEBHI1A |
| Aircraft | A343/H-SDE2E3FGHIJ4J5M1RWXY/LB1D1 |
Departure
| Time | 2026-05-05 13:49 |
|---|---|
| Airport | Dubai International Airport (OMDB) |
Arrival
| Time | N/A |
|---|---|
| Airport | Frankfurt Main Airport (EDDF) |
| Time | Latitude | Longitude | Altitude | Speed | Heading |
|---|---|---|---|---|---|
| 2026-05-05 13:22 | 25.25330 | 55.35138 | 30 ft | 0 kts | 31° |
| 2026-05-05 13:25 | 25.25330 | 55.35137 | 25 ft | 0 kts | 31° |
| 2026-05-05 13:32 | 25.25312 | 55.35125 | 16 ft | 4 kts | 28° |
| 2026-05-05 13:32 | 25.25287 | 55.35112 | 36 ft | 4 kts | 24° |
| 2026-05-05 13:33 | 25.25262 | 55.35100 | 30 ft | 4 kts | 21° |
| 2026-05-05 13:33 | 25.25237 | 55.35090 | 30 ft | 4 kts | 18° |
| 2026-05-05 13:33 | 25.25211 | 55.35081 | 29 ft | 4 kts | 20° |
| 2026-05-05 13:33 | 25.25191 | 55.35071 | 29 ft | 1 kts | 31° |
| 2026-05-05 13:34 | 25.25193 | 55.35089 | 30 ft | 4 kts | 107° |
| 2026-05-05 13:34 | 25.25178 | 55.35114 | 27 ft | 4 kts | 125° |
| 2026-05-05 13:34 | 25.25164 | 55.35140 | 30 ft | 0 kts | 301° |
| 2026-05-05 13:35 | 25.25166 | 55.35136 | 30 ft | 3 kts | 301° |
| 2026-05-05 13:36 | 25.25188 | 55.35097 | 28 ft | 9 kts | 301° |
| 2026-05-05 13:36 | 25.25231 | 55.35016 | 28 ft | 15 kts | 301° |
| 2026-05-05 13:36 | 25.25296 | 55.34898 | 30 ft | 20 kts | 304° |
| 2026-05-05 13:36 | 25.25418 | 55.34817 | 29 ft | 22 kts | 352° |
| 2026-05-05 13:37 | 25.25568 | 55.34870 | 29 ft | 24 kts | 28° |
| 2026-05-05 13:37 | 25.25717 | 55.34973 | 29 ft | 27 kts | 31° |
| 2026-05-05 13:37 | 25.25883 | 55.35084 | 28 ft | 29 kts | 31° |
| 2026-05-05 13:37 | 25.26049 | 55.35192 | 30 ft | 24 kts | 31° |
| 2026-05-05 13:38 | 25.26135 | 55.35272 | 26 ft | 11 kts | 72° |
| 2026-05-05 13:38 | 25.26102 | 55.35355 | 30 ft | 16 kts | 122° |
| 2026-05-05 13:38 | 25.26015 | 55.35509 | 30 ft | 31 kts | 122° |
| 2026-05-05 13:38 | 25.25880 | 55.35748 | 30 ft | 43 kts | 121° |
| 2026-05-05 13:39 | 25.25721 | 55.36035 | 30 ft | 45 kts | 123° |
| 2026-05-05 13:39 | 25.25595 | 55.36259 | 26 ft | 32 kts | 121° |
| 2026-05-05 13:39 | 25.25470 | 55.36483 | 27 ft | 36 kts | 122° |
| 2026-05-05 13:39 | 25.25332 | 55.36726 | 30 ft | 39 kts | 122° |
| 2026-05-05 13:40 | 25.25184 | 55.36988 | 28 ft | 41 kts | 121° |
| 2026-05-05 13:40 | 25.25140 | 55.37066 | 27 ft | 42 kts | 121° |
| 2026-05-05 13:41 | 25.25062 | 55.37205 | 27 ft | 34 kts | 122° |
| 2026-05-05 13:41 | 25.24958 | 55.37393 | 28 ft | 30 kts | 121° |
| 2026-05-05 13:41 | 25.24840 | 55.37599 | 27 ft | 34 kts | 122° |
| 2026-05-05 13:42 | 25.24738 | 55.37780 | 26 ft | 22 kts | 120° |
| 2026-05-05 13:42 | 25.24679 | 55.37888 | 31 ft | 5 kts | 122° |
| 2026-05-05 13:42 | 25.24659 | 55.37929 | 26 ft | 2 kts | 107° |
| 2026-05-05 13:42 | 25.24664 | 55.37957 | 26 ft | 5 kts | 66° |
| 2026-05-05 13:43 | 25.24682 | 55.37971 | 27 ft | 0 kts | 30° |
| 2026-05-05 13:45 | 25.24696 | 55.37980 | 27 ft | 5 kts | 29° |
| 2026-05-05 13:45 | 25.24735 | 55.38004 | 28 ft | 8 kts | 29° |
| 2026-05-05 13:45 | 25.24794 | 55.38026 | 29 ft | 8 kts | 351° |
| 2026-05-05 13:45 | 25.24817 | 55.38001 | 29 ft | 0 kts | 306° |
| 2026-05-05 13:47 | 25.24818 | 55.38001 | 29 ft | 1 kts | 306° |
| 2026-05-05 13:47 | 25.24830 | 55.37981 | 29 ft | 6 kts | 305° |
| 2026-05-05 13:48 | 25.24861 | 55.37933 | 29 ft | 9 kts | 305° |
| 2026-05-05 13:48 | 25.24940 | 55.37791 | 29 ft | 45 kts | 301° |
| 2026-05-05 13:48 | 25.25198 | 55.37319 | 31 ft | 97 kts | 301° |
| 2026-05-05 13:48 | 25.25630 | 55.36541 | 28 ft | 139 kts | 302° |
| 2026-05-05 13:49 | 25.26213 | 55.35516 | 62 ft | 171 kts | 303° |
| 2026-05-05 13:49 | 25.26814 | 55.34413 | 662 ft | 163 kts | 303° |
| 2026-05-05 13:49 | 25.27415 | 55.33320 | 1050 ft | 172 kts | 304° |
| 2026-05-05 13:49 | 25.28072 | 55.32142 | 1342 ft | 191 kts | 305° |
| 2026-05-05 13:50 | 25.28797 | 55.30842 | 1474 ft | 197 kts | 304° |
| 2026-05-05 13:50 | 25.29319 | 55.29435 | 1546 ft | 213 kts | 277° |
| 2026-05-05 13:50 | 25.29000 | 55.27744 | 1697 ft | 240 kts | 247° |
| 2026-05-05 13:50 | 25.28235 | 55.26028 | 1960 ft | 257 kts | 243° |
| 2026-05-05 13:51 | 25.27409 | 55.24241 | 2458 ft | 263 kts | 243° |
| 2026-05-05 13:51 | 25.26602 | 55.22439 | 3057 ft | 266 kts | 244° |
| 2026-05-05 13:51 | 25.25794 | 55.20598 | 3667 ft | 267 kts | 243° |
| 2026-05-05 13:51 | 25.24987 | 55.18733 | 4296 ft | 269 kts | 243° |
| 2026-05-05 13:52 | 25.24069 | 55.16937 | 4869 ft | 269 kts | 225° |
| 2026-05-05 13:52 | 25.22503 | 55.15884 | 5460 ft | 266 kts | 190° |
| 2026-05-05 13:52 | 25.20685 | 55.15943 | 6067 ft | 264 kts | 165° |
| 2026-05-05 13:52 | 25.18937 | 55.16570 | 6596 ft | 266 kts | 147° |
| 2026-05-05 13:53 | 25.17676 | 55.18024 | 6945 ft | 263 kts | 118° |
| 2026-05-05 13:53 | 25.16873 | 55.19865 | 7027 ft | 269 kts | 114° |
| 2026-05-05 13:53 | 25.16105 | 55.21737 | 7039 ft | 271 kts | 115° |
| 2026-05-05 13:53 | 25.15286 | 55.23617 | 7040 ft | 272 kts | 116° |
| 2026-05-05 13:54 | 25.14420 | 55.25465 | 7032 ft | 271 kts | 121° |
| 2026-05-05 13:54 | 25.13186 | 55.27036 | 7040 ft | 270 kts | 138° |
| 2026-05-05 13:54 | 25.11728 | 55.28342 | 7044 ft | 271 kts | 142° |
| 2026-05-05 13:54 | 25.10221 | 55.29612 | 7139 ft | 273 kts | 142° |
| 2026-05-05 13:55 | 25.08706 | 55.30887 | 7509 ft | 276 kts | 141° |
| 2026-05-05 13:55 | 25.07356 | 55.32389 | 8061 ft | 278 kts | 126° |
| 2026-05-05 13:55 | 25.06313 | 55.34196 | 8664 ft | 281 kts | 119° |
| 2026-05-05 13:55 | 25.05378 | 55.36076 | 9260 ft | 285 kts | 118° |
| 2026-05-05 13:56 | 25.04444 | 55.38021 | 9815 ft | 289 kts | 118° |
| 2026-05-05 13:56 | 25.03507 | 55.40001 | 10353 ft | 292 kts | 117° |